Flight Track Log - Related Links

Times and Time Zones

All times are in EDT time to prevent confusion due to time zone crossing. See the SWA1385 flight status page for this flight to view local times or setup timezone preferences in your user account.

Time Position Orientation Groundspeed Altitude Reporting Facility
EDT Latitude Longitude Course Direction KTS MPH feet Rate Location/Type
Sat 03:10:33 PM 40.6167 -80.1564 266° West 303 349 8,300  Level Cleveland Center
Sat 03:11:33 PM 40.6461 -80.2467 293° West 329 379 11,400 2,800 Climbing Cleveland Center
Sat 03:12:33 PM 40.6319 -80.3642 261° West 361 415 13,900 2,650 Climbing Cleveland Center
Sat 03:13:33 PM 40.6236 -80.4983 265° West 371 427 16,700 2,750 Climbing Cleveland Center
Sat 03:14:00 PM 40.4667 -81.0711 270° West  Level FlightAware Approximate
Sat 03:14:33 PM 40.6092 -80.6486 263° West 371 427 19,400  Level Cleveland Center
Sat 03:15:00 PM 40.4599 -81.2137 266° West  Level FlightAware Approximate
Sat 03:15:33 PM 40.5964 -80.7744 262° West 378 435 22,000  Level Cleveland Center
Sat 03:16:33 PM 40.5817 -80.9247 263° West 397 457 23,600 1,950 Climbing Cleveland Center
Sat 03:17:33 PM 40.5664 -81.0806 263° West 423 487 25,900 2,200 Climbing Cleveland Center
Sat 03:18:33 PM 40.5531 -81.2333 263° West 430 495 28,000 741 Climbing Cleveland Center
Sat 03:20:23 PM 40.5231 -81.5075 262° West 423 487 28,000 596 Level Indianapolis Center
Sat 03:21:24 PM 40.5044 -81.6856 262° West 418 481 29,700 2,049 Climbing Indianapolis Center
Sat 03:22:26 PM 40.4900 -81.8222 262° West 381 438 32,200 2,098 Climbing Indianapolis Center
Sat 03:23:27 PM 40.4761 -81.9600 262° West 377 434 34,000 976 Climbing Indianapolis Center
Sat 03:24:29 PM 40.4606 -82.0956 261° West 372 428 34,200 1,171 Climbing Indianapolis Center
Sat 03:25:30 PM 40.4494 -82.2281 264° West 363 418 36,400 1,561 Climbing Indianapolis Center
Sat 03:26:32 PM 40.4394 -82.3586 264° West 356 410 37,400 878 Climbing Indianapolis Center
Sat 03:27:33 PM 40.4272 -82.4961 263° West 372 428 38,200 829 Climbing Indianapolis Center
Sat 03:28:35 PM 40.4161 -82.6361 264° West 381 438 39,100 829 Climbing Indianapolis Center
Sat 03:29:36 PM 40.4042 -82.7764 264° West 385 443 39,900 439 Climbing Indianapolis Center
Sat 03:30:38 PM 40.3914 -82.9244 264° West 391 450 40,000 49 Climbing Indianapolis Center
Sat 03:31:39 PM 40.3783 -83.0681 263° West 393 452 40,000  Level Indianapolis Center
Sat 03:32:41 PM 40.3658 -83.2125 264° West 396 456 40,000  Level Indianapolis Center
Sat 03:33:42 PM 40.3528 -83.3561 263° West 396 456 40,000  Level Indianapolis Center
Sat 03:34:44 PM 40.3367 -83.5258 263° West 400 460 40,000  Level Indianapolis Center
Sat 03:35:45 PM 40.3236 -83.6708 263° West 401 461 40,000  Level Indianapolis Center
Sat 03:36:47 PM 40.3094 -83.8158 263° West 402 463 40,000  Level Indianapolis Center
Sat 03:37:48 PM 40.2958 -83.9603 263° West 399 459 40,000  Level Indianapolis Center
Sat 03:38:50 PM 40.2769 -84.1031 260° West 398 458 40,000  Level Indianapolis Center
Sat 03:39:51 PM 40.2478 -84.2439 255° West 398 458 40,000  Level Indianapolis Center
Sat 03:40:53 PM 40.2206 -84.3844 256° West 398 458 40,000  Level Indianapolis Center
Sat 03:41:54 PM 40.1925 -84.5264 256° West 399 459 40,000  Level Indianapolis Center
Sat 03:42:55 PM 40.1656 -84.6675 256° West 399 459 40,000  Level Indianapolis Center
Sat 03:43:57 PM 40.1372 -84.8072 255° West 397 457 40,000  Level Indianapolis Center
Sat 03:44:58 PM 40.1075 -84.9633 256° West 398 458 40,000  Level Indianapolis Center
Sat 03:46:00 PM 40.0783 -85.1042 255° West 398 458 40,000  Level Indianapolis Center
Sat 03:47:01 PM 40.0492 -85.2464 255° West 403 464 40,000  Level Indianapolis Center
Sat 03:48:03 PM 40.0200 -85.3878 255° West 402 463 40,000  Level Indianapolis Center
Sat 03:49:04 PM 39.9903 -85.5311 255° West 407 468 40,000  Level Indianapolis Center
Sat 03:50:06 PM 39.9617 -85.6725 255° West 405 466 40,000  Level Indianapolis Center
Sat 03:51:07 PM 39.9275 -85.8375 255° West 403 464 40,000  Level Indianapolis Center
Sat 03:52:09 PM 39.8978 -85.9772 255° West 400 460 40,000  Level Indianapolis Center
Sat 03:53:10 PM 39.8692 -86.1147 255° West 395 455 40,000  Level Indianapolis Center
Sat 03:54:12 PM 39.8417 -86.2419 254° West 395 455 40,000 -49 Level Indianapolis Center
Sat 03:55:13 PM 39.8114 -86.3789 254° West 394 453 39,900 -634 Descending Indianapolis Center
Sat 03:56:15 PM 39.7831 -86.5192 255° West 387 445 38,700 -927 Descending Indianapolis Center
Sat 03:57:16 PM 39.7494 -86.6753 254° West 383 441 38,000 -341 Descending Indianapolis Center
Sat 03:58:18 PM 39.7206 -86.8094 254° West 384 442 38,000  Level Indianapolis Center
Sat 03:59:19 PM 39.6911 -86.9458 254° West 388 447 38,000  Level Indianapolis Center
Sat 04:00:21 PM 39.6617 -87.0833 254° West 393 452 38,000  Level Indianapolis Center
Sat 04:01:22 PM 39.6311 -87.2208 254° West 394 453 38,000  Level Indianapolis Center
Sat 04:02:24 PM 39.6003 -87.3583 254° West 394 453 38,000  Level Indianapolis Center
Sat 04:03:25 PM 39.5700 -87.4972 254° West 398 458 38,000  Level Indianapolis Center
Sat 04:04:27 PM 39.5389 -87.6356 254° West 399 459 38,000  Level Indianapolis Center
Sat 04:05:28 PM 39.5069 -87.7736 253° West 397 457 38,000  Level Indianapolis Center
Sat 04:06:09 PM 39.4833 -87.8794 254° West 399 459 38,000  Level Kansas City Center
Sat 04:07:10 PM 39.4531 -88.0189 254° West 400 460 38,000  Level Kansas City Center
Sat 04:08:12 PM 39.4217 -88.1578 254° West 402 463 38,000  Level Kansas City Center
Sat 04:09:14 PM 39.3892 -88.2956 253° West 401 461 38,000  Level Kansas City Center
Sat 04:10:16 PM 39.3553 -88.4381 253° West 408 470 38,000  Level Kansas City Center
Sat 04:11:17 PM 39.3183 -88.6003 254° West 410 472 38,000  Level Kansas City Center
Sat 04:12:19 PM 39.2839 -88.7403 252° West 410 472 38,000  Level Kansas City Center
Sat 04:13:21 PM 39.2525 -88.8800 254° West 409 471 38,000  Level Kansas City Center
Sat 04:14:23 PM 39.2194 -89.0194 253° West 408 470 38,000  Level Kansas City Center
Sat 04:15:24 PM 39.1861 -89.1581 253° West 407 468 38,000  Level Kansas City Center
Sat 04:16:26 PM 39.1478 -89.3161 253° West 408 470 38,000  Level Kansas City Center
Sat 04:17:28 PM 39.1125 -89.4667 253° West 409 471 38,000  Level Kansas City Center
Sat 04:18:30 PM 39.0778 -89.6047 252° West 408 470 38,000  Level Kansas City Center
Sat 04:19:32 PM 39.0414 -89.7564 253° West 413 475 38,000  Level Kansas City Center
Sat 04:20:34 PM 39.0072 -89.8958 253° West 412 474 38,000  Level Kansas City Center
Sat 04:21:35 PM 38.9756 -90.0242 252° West 415 478 38,000  Level Kansas City Center
Sat 04:22:37 PM 38.9408 -90.1656 253° West 416 479 38,000  Level Kansas City Center
Sat 04:23:39 PM 38.9025 -90.3264 253° West 411 473 38,000  Level Kansas City Center
Sat 04:24:41 PM 38.8650 -90.4692 251° West 417 480 38,000  Level Kansas City Center
Sat 04:25:43 PM 38.8400 -90.6097 257° West 407 468 38,000  Level Kansas City Center
Sat 04:26:45 PM 38.8253 -90.7592 263° West 416 479 38,000  Level Kansas City Center
Sat 04:27:46 PM 38.8061 -90.9033 260° West 418 481 38,000  Level Kansas City Center
Sat 04:28:48 PM 38.7833 -91.0761 260° West 414 476 38,000  Level Kansas City Center
Sat 04:29:50 PM 38.7642 -91.2214 260° West 415 478 38,000  Level Kansas City Center
Sat 04:30:52 PM 38.7456 -91.3656 261° West 414 476 38,000  Level Kansas City Center
Sat 04:31:54 PM 38.7253 -91.5097 260° West 414 476 38,000  Level Kansas City Center
Sat 04:32:55 PM 38.7044 -91.6644 260° West 418 481 38,000  Level Kansas City Center
Sat 04:33:57 PM 38.6836 -91.8122 260° West 421 484 38,000  Level Kansas City Center
Sat 04:34:59 PM 38.6617 -91.9606 259° West 425 489 38,000  Level Kansas City Center
Sat 04:36:01 PM 38.6367 -92.1386 260° West 425 489 38,000  Level Kansas City Center
Sat 04:37:03 PM 38.6136 -92.2856 259° West 424 488 38,000  Level Kansas City Center
Sat 04:38:05 PM 38.5928 -92.4331 260° West 424 488 38,000  Level Kansas City Center
Sat 04:39:06 PM 38.5706 -92.5789 259° West 421 484 38,000  Level Kansas City Center
Sat 04:40:08 PM 38.5481 -92.7294 259° West 427 491 38,000  Level Kansas City Center
Sat 04:41:10 PM 38.5258 -92.8772 259° West 426 490 38,000  Level Kansas City Center
Sat 04:42:12 PM 38.5033 -93.0261 259° West 428 493 38,000  Level Kansas City Center
Sat 04:43:14 PM 38.4758 -93.2058 259° West 430 495 38,000  Level Kansas City Center
Sat 04:44:16 PM 38.4531 -93.3542 259° West 429 494 38,000  Level Kansas City Center
Sat 04:45:17 PM 38.4303 -93.5008 259° West 425 489 38,000  Level Kansas City Center
Sat 04:46:19 PM 38.4069 -93.6494 259° West 426 490 38,000  Level Kansas City Center
Sat 04:47:21 PM 38.3839 -93.7975 259° West 426 490 38,000  Level Kansas City Center
Sat 04:48:23 PM 38.3606 -93.9447 259° West 425 489 38,000  Level Kansas City Center
Sat 04:49:25 PM 38.3375 -94.0969 259° West 428 493 38,000  Level Kansas City Center
Sat 04:50:26 PM 38.3100 -94.2656 258° West 430 495 38,000  Level Kansas City Center
Sat 04:51:28 PM 38.2858 -94.4092 258° West 432 497 38,000  Level Kansas City Center
Sat 04:52:30 PM 38.2592 -94.5764 259° West 432 497 38,000  Level Kansas City Center
Sat 04:53:32 PM 38.2356 -94.7194 258° West 432 497 38,000  Level Kansas City Center
Sat 04:54:33 PM 38.2100 -94.8872 259° West 431 496 38,000  Level Kansas City Center
Sat 04:55:35 PM 38.1869 -95.0303 258° West 431 496 38,000  Level Kansas City Center
Sat 04:56:37 PM 38.1633 -95.1731 258° West 430 495 38,000  Level Kansas City Center
Sat 04:57:39 PM 38.1347 -95.3389 258° West 429 494 38,000  Level Kansas City Center
Sat 04:58:40 PM 38.1111 -95.4808 258° West 430 495 38,000  Level Kansas City Center
Sat 04:59:42 PM 38.0819 -95.6472 257° West 430 495 38,000  Level Kansas City Center
Sat 05:00:44 PM 38.0589 -95.7892 258° West 430 495 38,000  Level Kansas City Center
Sat 05:01:46 PM 38.0325 -95.9311 257° West 432 497 38,000  Level Kansas City Center
Sat 05:02:48 PM 38.0061 -96.0978 259° West 432 497 38,000  Level Kansas City Center
Sat 05:03:49 PM 37.9797 -96.2542 258° West 438 504 38,000  Level Kansas City Center
Sat 05:04:51 PM 37.9544 -96.4039 258° West 435 501 38,000  Level Kansas City Center
Sat 05:05:53 PM 37.9292 -96.5533 258° West 434 499 38,000  Level Kansas City Center
Sat 05:06:55 PM 37.9044 -96.7036 258° West 435 501 38,000  Level Kansas City Center
Sat 05:07:56 PM 37.8786 -96.8536 258° West 437 503 38,000  Level Kansas City Center
Sat 05:08:58 PM 37.8517 -97.0047 257° West 438 504 38,000  Level Kansas City Center
Sat 05:10:00 PM 37.8181 -97.1867 257° West 441 507 38,000  Level Kansas City Center
Sat 05:11:01 PM 37.7908 -97.3389 257° West 443 510 38,000  Level Kansas City Center
Sat 05:12:03 PM 37.7636 -97.4836 257° West 444 511 38,000  Level Kansas City Center
Sat 05:13:05 PM 37.7358 -97.6350 257° West 443 510 38,000  Level Kansas City Center
Sat 05:14:06 PM 37.7064 -97.7872 256° West 445 512 38,000  Level Kansas City Center
Sat 05:15:08 PM 37.6767 -97.9383 256° West 444 511 38,000  Level Kansas City Center
Sat 05:16:10 PM 37.6422 -98.1192 257° West 443 510 38,000  Level Kansas City Center
Sat 05:17:11 PM 37.6158 -98.2564 256° West 444 511 38,000  Level Kansas City Center
Sat 05:18:13 PM 37.5844 -98.4089 255° West 448 516 38,000  Level Kansas City Center
Sat 05:19:15 PM 37.5547 -98.5625 256° West 449 517 38,000  Level Kansas City Center
Sat 05:20:16 PM 37.5233 -98.7156 256° West 450 518 38,000  Level Kansas City Center
Sat 05:21:18 PM 37.4856 -98.9000 256° West 453 521 38,000  Level Kansas City Center
Sat 05:22:20 PM 37.4539 -99.0514 255° West 450 518 38,000  Level Kansas City Center
Sat 05:23:21 PM 37.4228 -99.2036 256° West 447 514 38,000  Level Kansas City Center
Sat 05:24:23 PM 37.3919 -99.3542 256° West 446 513 38,000  Level Kansas City Center
Sat 05:25:25 PM 37.3572 -99.5225 256° West 444 511 38,000  Level Kansas City Center
Sat 05:26:26 PM 37.3264 -99.6667 255° West 446 513 38,000  Level Kansas City Center
Sat 05:27:28 PM 37.2972 -99.8103 256° West 444 511 38,000  Level Kansas City Center
Sat 05:28:30 PM 37.2608 -99.9789 255° West 446 513 38,000  Level Kansas City Center
Sat 05:29:31 PM 37.2294 -100.1236 255° West 447 514 38,000  Level Kansas City Center
Sat 05:30:33 PM 37.1939 -100.2928 255° West 448 516 38,000  Level Kansas City Center
Sat 05:31:34 PM 37.1622 -100.4386 255° West 449 517 38,000  Level Kansas City Center
Sat 05:32:36 PM 37.1297 -100.5850 254° West 452 520 38,000  Level Kansas City Center
Sat 05:33:38 PM 37.0919 -100.7569 255° West 455 524 38,000  Level Kansas City Center
Sat 05:34:39 PM 37.0581 -100.9053 254° West 458 527 38,000  Level Kansas City Center
Sat 05:35:41 PM 37.0117 -101.0753 251° West 462 532 38,000  Level Kansas City Center
Sat 05:36:42 PM 36.9669 -101.2183 249° West 462 532 38,000  Level Kansas City Center
Sat 05:37:44 PM 36.9231 -101.3597 249° West 457 526 38,000  Level Kansas City Center
Sat 05:38:56 PM 36.8631 -101.5486 248° West 457 526 38,000  Level Albuquerque Center
Sat 05:39:57 PM 36.8178 -101.6892 248° West 456 525 38,000  Level Albuquerque Center
Sat 05:40:59 PM 36.7664 -101.8539 249° West 456 525 38,000  Level Albuquerque Center
Sat 05:42:00 PM 36.7211 -101.9950 248° West 456 525 38,000  Level Albuquerque Center
Sat 05:43:54 PM 36.6294 -102.2742 248° West 457 526 38,000  Level Kansas City Center
Sat 05:45:04 PM 36.5736 -102.4489 248° West 452 520 38,000  Level Albuquerque Center
Sat 05:46:06 PM 36.5269 -102.5956 248° West 456 525 38,000  Level Albuquerque Center
Sat 05:47:07 PM 36.4789 -102.7392 247° West 455 524 38,000  Level Albuquerque Center
Sat 05:48:09 PM 36.4289 -102.8933 248° West 456 525 38,000  Level Albuquerque Center
Sat 05:49:10 PM 36.3808 -103.0408 248° West 457 526 38,000  Level Albuquerque Center
Sat 05:50:12 PM 36.3317 -103.1828 247° West 448 516 38,000  Level Albuquerque Center
Sat 05:51:13 PM 36.2850 -103.3278 248° West 448 516 38,000  Level Albuquerque Center
Sat 05:52:15 PM 36.2361 -103.4719 247° West 451 519 38,000  Level Albuquerque Center
Sat 05:53:16 PM 36.1883 -103.6150 248° West 448 516 38,000  Level Albuquerque Center
Sat 05:54:18 PM 36.1311 -103.7836 247° West 450 518 38,000  Level Albuquerque Center
Sat 05:55:19 PM 36.0878 -103.9247 249° West 446 513 38,000  Level Albuquerque Center
Sat 05:56:21 PM 36.0617 -104.0686 257° West 431 496 38,000  Level Albuquerque Center
Sat 05:57:22 PM 36.0333 -104.2153 257° West 435 501 38,000  Level Albuquerque Center
Sat 05:58:24 PM 36.0056 -104.3608 257° West 435 501 38,000  Level Albuquerque Center
Sat 05:59:25 PM 35.9769 -104.5081 257° West 437 503 38,000  Level Albuquerque Center
Sat 06:00:27 PM 35.9486 -104.6528 256° West 435 501 38,000  Level Albuquerque Center
Sat 06:01:28 PM 35.9189 -104.8008 256° West 439 505 38,000  Level Albuquerque Center
Sat 06:02:30 PM 35.8889 -104.9453 256° West 438 504 38,000  Level Albuquerque Center
Sat 06:03:31 PM 35.8550 -105.1144 256° West 435 501 38,000  Level Albuquerque Center
Sat 06:04:33 PM 35.8267 -105.2592 256° West 433 498 38,000  Level Albuquerque Center
Sat 06:05:34 PM 35.7975 -105.4022 256° West 430 495 38,000  Level Albuquerque Center
Sat 06:06:36 PM 35.7675 -105.5458 256° West 431 496 38,000  Level Albuquerque Center
Sat 06:07:37 PM 35.7414 -105.6761 256° West 431 496 38,000  Level Albuquerque Center
Sat 06:08:39 PM 35.7111 -105.8181 255° West 429 494 38,000  Level Albuquerque Center
Sat 06:09:40 PM 35.6817 -105.9600 256° West 430 495 38,000  Level Albuquerque Center
Sat 06:10:42 PM 35.6456 -106.1317 256° West 433 498 38,000  Level Albuquerque Center
Sat 06:11:43 PM 35.6172 -106.2764 256° West 437 503 38,000  Level Albuquerque Center
Sat 06:12:45 PM 35.5875 -106.4200 256° West 436 502 38,000  Level Albuquerque Center
Sat 06:13:46 PM 35.5547 -106.5656 255° West 441 507 38,000  Level Albuquerque Center
Sat 06:14:48 PM 35.5242 -106.7106 256° West 444 511 38,000  Level Albuquerque Center
Sat 06:15:49 PM 35.4925 -106.8581 255° West 448 516 38,000  Level Albuquerque Center
Sat 06:16:50 PM 35.4589 -107.0050 254° West 452 520 38,000  Level Albuquerque Center
Sat 06:17:52 PM 35.4214 -107.1808 255° West 450 518 38,000  Level Albuquerque Center
Sat 06:18:53 PM 35.3878 -107.3156 253° West 449 517 38,000  Level Albuquerque Center
Sat 06:19:55 PM 35.3483 -107.4717 253° West 450 518 38,000  Level Albuquerque Center
Sat 06:20:56 PM 35.3122 -107.6158 253° West 443 510 38,000  Level Albuquerque Center
Sat 06:21:58 PM 35.2739 -107.7769 254° West 440 506 38,000  Level Albuquerque Center
Sat 06:22:59 PM 35.2397 -107.9122 253° West 437 503 38,000  Level Albuquerque Center
Sat 06:24:01 PM 35.2033 -108.0494 252° West 439 505 38,000  Level Albuquerque Center
Sat 06:25:02 PM 35.1650 -108.2064 253° West 435 501 38,000  Level Albuquerque Center
Sat 06:26:03 PM 35.1306 -108.3428 253° West 435 501 38,000  Level Albuquerque Center
Sat 06:27:05 PM 35.0894 -108.5014 252° West 437 503 38,000  Level Albuquerque Center
Sat 06:28:06 PM 35.0547 -108.6381 253° West 438 504 38,000  Level Albuquerque Center
Sat 06:29:08 PM 35.0189 -108.7742 252° West 439 505 38,000  Level Albuquerque Center
Sat 06:30:09 PM 34.9772 -108.9347 252° West 441 507 38,000  Level Albuquerque Center
Sat 06:31:11 PM 34.9411 -109.0747 253° West 447 514 38,000  Level Albuquerque Center
Sat 06:32:12 PM 34.8983 -109.2372 252° West 449 517 38,000  Level Albuquerque Center
Sat 06:33:13 PM 34.8611 -109.3756 252° West 449 517 38,000  Level Albuquerque Center
Sat 06:34:15 PM 34.8231 -109.5128 251° West 447 514 38,000 -976 Level Albuquerque Center
Sat 06:35:16 PM 34.7778 -109.6689 251° West 440 506 36,000 -976 Descending Albuquerque Center
Sat 06:36:18 PM 34.7278 -109.8017 245° Southwest 446 513 36,000  Level Albuquerque Center
Sat 06:37:19 PM 34.6789 -109.9358 246° West 452 520 36,000  Level Albuquerque Center
Sat 06:38:20 PM 34.6203 -110.0917 245° Southwest 454 522 36,000  Level Albuquerque Center
Sat 06:39:22 PM 34.5694 -110.2297 246° West 462 532 36,000 -1,415 Level Albuquerque Center
Sat 06:40:23 PM 34.4839 -110.3622 232° Southwest 448 516 33,100 -2,607 Descending Albuquerque Center
Sat 06:41:24 PM 34.4244 -110.4756 238° Southwest 455 524 30,700 -2,439 Descending Albuquerque Center
Sat 06:42:26 PM 34.3558 -110.5997 236° Southwest 448 516 28,100 -2,439 Descending Albuquerque Center
Sat 06:43:27 PM 34.2847 -110.7183 234° Southwest 439 505 25,700 -2,262 Descending Albuquerque Center
Sat 06:44:28 PM 34.2011 -110.8519 233° Southwest 421 484 23,500 -2,098 Descending Albuquerque Center
Sat 06:45:30 PM 34.1400 -110.9600 236° Southwest 398 458 21,400 -2,049 Descending Albuquerque Center
Sat 06:46:31 PM 34.0797 -111.0639 235° Southwest 384 442 19,300 -1,967 Descending Albuquerque Center
Sat 06:47:32 PM 34.0211 -111.1644 235° Southwest 372 428 17,400 -1,902 Descending Albuquerque Center
Sat 06:48:34 PM 33.9664 -111.2589 235° Southwest 350 403 15,400 -1,854 Descending Albuquerque Center
Sat 06:49:35 PM 33.9125 -111.3536 236° Southwest 342 394 13,600 -1,623 Descending Albuquerque Center
Sat 06:50:36 PM 33.8508 -111.4339 227° Southwest 326 375 12,100 -1,512 Descending Albuquerque Center
Sat 06:51:38 PM 33.7794 -111.4928 214° Southwest 312 359 10,500 -1,415 Descending Albuquerque Center
Sat 06:52:39 PM 33.7136 -111.5497 216° Southwest 293 337 9,200 -984 Descending Albuquerque Center
Sat 06:53:40 PM 33.6506 -111.6039 216° Southwest 278 320 8,500 -836 Descending Albuquerque Center
Sat 06:54:41 PM 33.5925 -111.6522 215° Southwest 256 295 7,500 -1,073 Descending Albuquerque Center
Sat 06:55:43 PM 33.5350 -111.7008 215° Southwest 252 290 6,300 -1,317 Descending Albuquerque Center
Sat 06:56:44 PM 33.4822 -111.7753 230° Southwest 247 284 4,800 -1,131 Descending Albuquerque Center
Sat 06:57:45 PM 33.4511 -111.8383 239° Southwest 220 253 4,000 -885 Descending Albuquerque Center
Sat 06:58:46 PM 33.4408 -111.8881 256° West 154 177 3,000 -829 Descending Albuquerque Center
Sat 06:59:48 PM 33.4319 -111.9317 256° West 137 158 2,300 -732 Descending Albuquerque Center
Sat 07:00:49 PM 33.4311 -111.9775 269° West 137 158 1,500 -590 Descending Albuquerque Center
Sat 07:01:50 PM 33.4297 -112.0242 268° West 138 159 1,100 -393 Descending Albuquerque Center
Sat 07:03:00 PM 33.4343 -112.0116 90° East  Level Estimated

Login

Don't have an account? Register now (free) for customized features, flight alerts, and more!